Time;durP1;ratioP1;P1;durP2;ratioP2;P2;SDS_P1;SDS_P2;PMS_P1;PMS_P2;Temp;Humidity;BMP_temperature;BMP_pressure;BME280_temperature;BME280_humidity;BME280_pressure;Samples;Min_cycle;Max_cycle;Signal;HPM_P1;HPM_P2
2023/04/28 00:01:47;;;;;;;5.43;2.00;;;10.30;68.10;;;;;;5012088;28;20026;-68
2023/04/28 00:04:12;;;;;;;9.18;2.22;;;10.30;66.80;;;;;;5010586;28;20173;-68
2023/04/28 00:06:39;;;;;;;9.60;2.35;;;10.30;66.00;;;;;;5011498;28;20037;-68
2023/04/28 00:09:09;;;;;;;4.80;2.03;;;10.40;66.20;;;;;;5010265;28;20076;-68
2023/04/28 00:11:35;;;;;;;10.82;2.30;;;10.40;65.00;;;;;;5011278;28;20176;-68
2023/04/28 00:14:00;;;;;;;7.53;2.28;;;10.40;65.30;;;;;;5010089;28;20109;-68
2023/04/28 00:16:27;;;;;;;5.50;2.67;;;10.40;65.00;;;;;;5011610;28;20097;-69
2023/04/28 00:18:53;;;;;;;9.27;2.70;;;10.40;65.10;;;;;;5011347;28;20034;-68
2023/04/28 00:21:18;;;;;;;5.35;2.63;;;10.40;64.90;;;;;;5011469;28;20359;-68
2023/04/28 00:23:44;;;;;;;9.35;3.17;;;10.40;64.70;;;;;;5011042;28;20030;-69
2023/04/28 00:26:11;;;;;;;5.57;2.30;;;10.50;64.90;;;;;;5010824;28;20196;-68
2023/04/28 00:28:36;;;;;;;4.95;2.13;;;10.50;64.20;;;;;;5011578;28;20018;-68
2023/04/28 00:31:10;;;;;;;4.15;2.38;;;10.50;64.30;;;;;;5011093;28;20049;-68
2023/04/28 00:33:36;;;;;;;6.35;2.33;;;10.50;64.60;;;;;;5010924;28;20141;-68
2023/04/28 00:36:01;;;;;;;4.82;2.40;;;10.40;64.80;;;;;;5011107;28;20034;-68
2023/04/28 00:38:27;;;;;;;7.43;2.38;;;10.40;65.40;;;;;;5010691;28;20033;-71
2023/04/28 00:40:53;;;;;;;6.15;2.50;;;10.50;65.30;;;;;;5010676;28;20026;-69
2023/04/28 00:43:18;;;;;;;7.57;2.65;;;10.50;65.00;;;;;;5010237;28;20191;-69
2023/04/28 00:45:44;;;;;;;5.68;2.00;;;10.50;64.50;;;;;;5009676;28;20116;-69
2023/04/28 00:48:10;;;;;;;6.13;2.45;;;10.40;65.00;;;;;;5010764;28;20033;-67
2023/04/28 00:50:36;;;;;;;5.68;2.03;;;10.40;65.50;;;;;;5010979;28;20052;-67
2023/04/28 00:53:02;;;;;;;5.55;2.20;;;10.50;65.20;;;;;;5009656;28;20239;-68
2023/04/28 00:55:32;;;;;;;8.30;2.38;;;10.60;64.80;;;;;;5011244;28;20121;-67
2023/04/28 00:57:58;;;;;;;6.20;2.42;;;10.50;64.60;;;;;;5009685;28;20042;-68
2023/04/28 01:00:24;;;;;;;7.30;2.85;;;10.50;64.90;;;;;;5009443;28;20034;-68
2023/04/28 01:02:52;;;;;;;7.43;2.50;;;10.40;65.20;;;;;;5010667;28;20522;-68
2023/04/28 01:05:18;;;;;;;4.35;2.45;;;10.60;65.00;;;;;;5009987;28;20042;-68
2023/04/28 01:07:44;;;;;;;9.27;2.90;;;10.50;64.90;;;;;;5010174;28;20040;-68
2023/04/28 01:10:10;;;;;;;14.25;2.55;;;10.70;64.20;;;;;;5009720;28;20026;-69
2023/04/28 01:12:35;;;;;;;5.80;2.40;;;10.70;63.70;;;;;;5010691;28;20084;-69
2023/04/28 01:15:01;;;;;;;8.40;2.60;;;10.80;63.80;;;;;;5010772;28;20452;-69
2023/04/28 01:17:27;;;;;;;8.85;3.10;;;10.70;64.60;;;;;;5009500;28;20464;-68
2023/04/28 01:19:52;;;;;;;8.52;2.63;;;10.70;65.10;;;;;;5010568;28;20025;-68
2023/04/28 01:22:19;;;;;;;3.83;2.20;;;10.80;64.20;;;;;;5011494;28;20045;-68
2023/04/28 01:24:45;;;;;;;10.85;2.45;;;10.70;64.70;;;;;;5010773;28;20037;-69
2023/04/28 01:27:11;;;;;;;8.13;2.90;;;10.70;64.70;;;;;;5010615;28;20042;-68
2023/04/28 01:29:36;;;;;;;8.68;2.38;;;10.70;64.90;;;;;;5010391;28;20443;-68
2023/04/28 01:32:02;;;;;;;5.43;2.45;;;10.60;64.60;;;;;;5010454;28;20022;-69
2023/04/28 01:34:28;;;;;;;7.45;2.50;;;10.70;64.80;;;;;;5010952;28;20030;-68
2023/04/28 01:36:53;;;;;;;6.90;2.42;;;10.70;64.50;;;;;;5025748;28;20033;-68
2023/04/28 01:39:19;;;;;;;8.25;2.33;;;10.80;64.60;;;;;;5029917;28;20071;-68
2023/04/28 01:41:45;;;;;;;9.57;2.88;;;10.70;64.70;;;;;;5030079;28;20107;-68
2023/04/28 01:44:12;;;;;;;8.27;3.03;;;10.70;64.70;;;;;;5028946;28;20108;-67
2023/04/28 01:46:37;;;;;;;8.32;2.67;;;10.70;65.10;;;;;;5029374;28;20031;-68
2023/04/28 01:49:03;;;;;;;5.30;2.47;;;10.70;64.70;;;;;;5030126;28;20030;-67
2023/04/28 01:51:30;;;;;;;5.55;2.65;;;10.70;64.60;;;;;;5032575;28;20034;-68
2023/04/28 01:53:56;;;;;;;19.25;2.90;;;10.70;64.70;;;;;;5033541;28;20069;-68
2023/04/28 01:56:21;;;;;;;8.05;2.72;;;10.70;64.80;;;;;;5033406;28;20110;-68
2023/04/28 01:58:47;;;;;;;6.63;2.78;;;10.60;64.90;;;;;;5033717;28;20116;-69
2023/04/28 02:01:12;;;;;;;7.57;2.88;;;10.60;64.70;;;;;;5033736;28;20371;-68
2023/04/28 02:03:38;;;;;;;7.38;3.03;;;10.60;64.70;;;;;;5033729;28;20117;-69
2023/04/28 02:06:04;;;;;;;12.38;2.90;;;10.50;64.90;;;;;;5033431;28;20379;-68
2023/04/28 02:08:30;;;;;;;4.70;2.20;;;10.60;65.00;;;;;;5033274;28;20124;-69
2023/04/28 02:10:56;;;;;;;8.38;2.75;;;10.70;65.00;;;;;;5033102;28;20049;-68
2023/04/28 02:13:23;;;;;;;7.65;2.95;;;10.60;64.90;;;;;;5032670;28;20455;-68
2023/04/28 02:15:48;;;;;;;11.05;2.63;;;10.60;65.00;;;;;;5033306;28;20033;-69
2023/04/28 02:18:14;;;;;;;8.40;2.60;;;10.60;64.80;;;;;;5032233;28;20051;-68
2023/04/28 02:20:40;;;;;;;9.27;3.45;;;10.50;65.00;;;;;;5033348;28;20037;-68
2023/04/28 02:23:06;;;;;;;8.75;3.55;;;10.50;64.90;;;;;;5033190;28;20037;-69
2023/04/28 02:25:32;;;;;;;8.90;3.17;;;10.50;65.10;;;;;;5033260;28;20115;-69
2023/04/28 02:27:58;;;;;;;4.68;2.38;;;10.40;65.20;;;;;;5033177;28;20072;-67
2023/04/28 02:30:23;;;;;;;7.38;2.70;;;10.30;65.70;;;;;;5033092;28;20025;-68
2023/04/28 02:32:49;;;;;;;7.40;3.05;;;10.40;65.10;;;;;;5033173;28;20095;-68
2023/04/28 02:35:15;;;;;;;7.03;3.15;;;10.50;65.50;;;;;;5033073;28;20043;-68
2023/04/28 02:37:40;;;;;;;6.68;3.05;;;10.40;65.90;;;;;;5033366;28;20021;-68
2023/04/28 02:40:07;;;;;;;7.82;2.80;;;10.30;66.10;;;;;;5032736;28;20132;-68
2023/04/28 02:42:33;;;;;;;8.38;3.67;;;10.30;66.20;;;;;;5032739;28;20038;-68
2023/04/28 02:44:58;;;;;;;11.43;3.30;;;10.30;66.20;;;;;;5032627;28;20056;-69
2023/04/28 02:47:24;;;;;;;10.02;3.03;;;10.30;66.00;;;;;;5032715;28;20060;-68
2023/04/28 02:49:49;;;;;;;8.90;2.88;;;10.30;66.10;;;;;;5033226;28;20021;-69
2023/04/28 02:52:15;;;;;;;5.95;3.10;;;10.30;66.60;;;;;;5032739;28;20041;-68
2023/04/28 02:54:41;;;;;;;6.93;3.40;;;10.30;66.80;;;;;;5032544;28;20090;-68
2023/04/28 02:57:07;;;;;;;12.07;3.13;;;10.20;66.50;;;;;;5032521;28;20033;-69
2023/04/28 02:59:32;;;;;;;5.35;2.63;;;10.20;66.60;;;;;;5032746;28;20037;-69
2023/04/28 03:01:58;;;;;;;6.50;2.78;;;10.20;66.60;;;;;;5032203;28;20025;-69
2023/04/28 03:04:24;;;;;;;9.38;2.95;;;10.40;66.20;;;;;;5032619;28;20510;-69
2023/04/28 03:06:49;;;;;;;8.70;3.00;;;10.40;66.30;;;;;;5032329;28;20029;-69
2023/04/28 03:09:15;;;;;;;6.15;2.78;;;10.40;66.40;;;;;;5032033;28;20060;-69
2023/04/28 03:11:41;;;;;;;6.57;2.90;;;10.40;66.50;;;;;;5032063;28;20041;-69
2023/04/28 03:14:07;;;;;;;12.18;3.67;;;10.40;66.40;;;;;;5032020;28;20045;-70
2023/04/28 03:16:32;;;;;;;6.90;2.83;;;10.50;66.40;;;;;;5031303;28;20462;-69
2023/04/28 03:18:58;;;;;;;6.10;3.03;;;10.40;66.60;;;;;;5030836;28;20110;-69
2023/04/28 03:21:26;;;;;;;13.63;3.50;;;10.30;66.90;;;;;;5031840;28;20029;-69
2023/04/28 03:23:52;;;;;;;;;;;10.40;67.10;;;;;;5032135;28;20044;-68
2023/04/28 03:26:18;;;;;;;6.28;2.60;;;10.30;66.90;;;;;;5031510;28;19932;-68
2023/04/28 03:28:43;;;;;;;8.20;3.30;;;10.40;66.90;;;;;;5031960;28;20025;-68
2023/04/28 03:31:09;;;;;;;12.25;3.97;;;10.40;66.80;;;;;;5031615;28;20127;-68
2023/04/28 03:33:35;;;;;;;5.43;3.22;;;10.40;67.20;;;;;;5031412;28;20116;-68
2023/04/28 03:36:01;;;;;;;7.82;3.10;;;10.30;67.80;;;;;;5031478;28;20336;-68
2023/04/28 03:38:26;;;;;;;9.30;3.42;;;10.30;67.50;;;;;;5031392;28;20026;-68
2023/04/28 03:40:52;;;;;;;7.05;3.17;;;10.20;67.90;;;;;;5031316;28;20044;-69
2023/04/28 03:43:18;;;;;;;9.40;3.38;;;10.10;68.40;;;;;;5031784;28;20113;-69
2023/04/28 03:45:43;;;;;;;7.88;3.63;;;10.10;68.00;;;;;;5031308;28;20064;-68
2023/04/28 03:48:09;;;;;;;10.63;3.63;;;10.10;68.00;;;;;;5031217;28;20029;-68
2023/04/28 03:50:35;;;;;;;12.45;3.08;;;10.10;67.80;;;;;;5031256;28;20132;-68
2023/04/28 03:53:01;;;;;;;8.20;2.95;;;10.10;68.00;;;;;;5031420;28;20240;-68
2023/04/28 03:55:26;;;;;;;13.05;3.22;;;10.10;68.70;;;;;;5031645;28;20088;-68
2023/04/28 03:57:52;;;;;;;10.25;3.15;;;10.10;68.10;;;;;;5031453;28;20455;-68
2023/04/28 04:00:18;;;;;;;10.90;3.28;;;10.00;68.80;;;;;;5031219;28;20030;-68
2023/04/28 04:02:43;;;;;;;9.38;3.40;;;9.90;70.30;;;;;;5029965;28;20033;-67
2023/04/28 04:05:09;;;;;;;10.35;3.35;;;9.90;70.00;;;;;;5031182;28;20076;-68
2023/04/28 04:07:35;;;;;;;9.90;3.38;;;10.00;68.60;;;;;;5031434;28;20032;-68
2023/04/28 04:10:01;;;;;;;11.00;3.20;;;10.00;68.50;;;;;;5031284;28;20034;-68
2023/04/28 04:12:26;;;;;;;6.70;3.55;;;10.00;68.50;;;;;;5030817;28;20479;-68
2023/04/28 04:14:52;;;;;;;10.65;3.55;;;9.90;69.80;;;;;;5030596;28;20120;-68
2023/04/28 04:17:18;;;;;;;10.35;3.80;;;9.80;70.40;;;;;;5030833;28;20060;-69
2023/04/28 04:19:43;;;;;;;10.73;3.67;;;9.80;70.90;;;;;;5031389;28;20048;-69
2023/04/28 04:22:09;;;;;;;4.55;3.05;;;9.90;70.50;;;;;;5030700;28;20050;-67
2023/04/28 04:24:34;;;;;;;7.45;3.20;;;10.10;68.60;;;;;;5030640;28;20029;-67
2023/04/28 04:27:00;;;;;;;6.80;3.25;;;10.20;68.70;;;;;;5029409;28;20045;-68
2023/04/28 04:29:26;;;;;;;8.18;3.65;;;10.10;68.90;;;;;;5030477;28;20034;-68
2023/04/28 04:31:51;;;;;;;8.20;3.50;;;10.10;69.00;;;;;;5031327;28;20094;-69
2023/04/28 04:34:17;;;;;;;10.52;3.45;;;10.10;68.60;;;;;;5031446;28;20026;-68
2023/04/28 04:36:43;;;;;;;9.30;3.70;;;10.10;69.10;;;;;;5030799;28;20109;-68
2023/04/28 04:39:08;;;;;;;12.68;3.53;;;10.10;69.00;;;;;;5031254;28;20030;-68
2023/04/28 04:41:34;;;;;;;8.70;4.10;;;10.00;69.20;;;;;;5034338;28;20341;-69
2023/04/28 04:44:00;;;;;;;7.07;3.22;;;9.90;70.80;;;;;;5031464;28;20029;-68
2023/04/28 04:46:26;;;;;;;9.75;3.58;;;10.00;69.50;;;;;;5031063;28;20060;-69
2023/04/28 04:48:51;;;;;;;6.65;3.85;;;10.10;69.50;;;;;;5030930;28;20115;-68
2023/04/28 04:51:18;;;;;;;11.95;3.50;;;10.10;69.60;;;;;;5030600;28;20536;-68
2023/04/28 04:53:43;;;;;;;7.38;3.53;;;10.00;69.10;;;;;;5029548;28;20037;-68
2023/04/28 04:56:09;;;;;;;13.60;4.00;;;10.10;69.10;;;;;;5030551;28;20044;-68
2023/04/28 04:58:35;;;;;;;10.45;3.78;;;10.10;69.30;;;;;;5030826;28;20446;-70
2023/04/28 05:01:02;;;;;;;10.35;3.67;;;10.10;69.40;;;;;;5029337;28;20033;-69
2023/04/28 05:03:27;;;;;;;12.40;3.70;;;10.10;69.80;;;;;;5030504;28;20037;-67
2023/04/28 05:05:53;;;;;;;6.60;3.05;;;10.20;69.30;;;;;;5030687;28;20117;-69
2023/04/28 05:08:19;;;;;;;11.90;4.32;;;10.20;69.10;;;;;;5030314;28;20072;-68
2023/04/28 05:10:45;;;;;;;9.07;3.30;;;10.10;69.20;;;;;;5029908;28;20129;-68
2023/04/28 05:13:10;;;;;;;7.70;3.53;;;10.20;69.10;;;;;;5030629;28;20452;-68
2023/04/28 05:15:36;;;;;;;8.88;3.65;;;10.20;69.40;;;;;;5030781;28;20054;-68
2023/04/28 05:18:08;;;;;;;8.27;3.50;;;10.20;69.10;;;;;;5030504;28;20367;-68
2023/04/28 05:20:34;;;;;;;11.68;3.10;;;10.30;69.40;;;;;;5029409;28;20072;-67
2023/04/28 05:22:59;;;;;;;17.80;3.67;;;10.20;68.90;;;;;;5030537;28;20048;-68
2023/04/28 05:25:25;;;;;;;14.02;3.67;;;10.20;69.00;;;;;;5031491;28;20340;-68
2023/04/28 05:27:51;;;;;;;10.23;3.53;;;10.30;69.10;;;;;;5034214;28;20040;-68
2023/04/28 05:30:17;;;;;;;12.77;3.97;;;10.30;69.00;;;;;;5033839;28;20125;-67
2023/04/28 05:32:42;;;;;;;8.43;4.03;;;10.30;69.40;;;;;;5032911;28;20038;-68
2023/04/28 05:35:08;;;;;;;14.80;3.65;;;10.30;69.20;;;;;;5033362;28;20076;-69
2023/04/28 05:37:34;;;;;;;6.10;3.65;;;10.40;69.20;;;;;;5033973;28;20026;-68
2023/04/28 05:40:00;;;;;;;7.22;3.65;;;10.40;69.10;;;;;;5033741;28;20116;-69
2023/04/28 05:42:25;;;;;;;10.93;4.10;;;10.40;69.00;;;;;;5033596;28;20132;-67
2023/04/28 05:44:51;;;;;;;10.05;3.25;;;10.30;69.30;;;;;;5033498;28;20037;-69
2023/04/28 05:47:16;;;;;;;6.68;3.65;;;10.30;69.40;;;;;;5032270;28;20045;-68
2023/04/28 05:49:42;;;;;;;5.82;3.15;;;10.40;69.80;;;;;;5033858;28;20045;-68
2023/04/28 05:52:08;;;;;;;10.73;4.32;;;10.50;69.50;;;;;;5033534;28;20091;-69
2023/04/28 05:54:34;;;;;;;9.10;3.55;;;10.70;69.30;;;;;;5033659;28;20140;-68
2023/04/28 05:57:00;;;;;;;9.30;4.07;;;10.70;69.40;;;;;;5033294;28;20367;-68
2023/04/28 05:59:27;;;;;;;11.20;3.67;;;10.70;69.00;;;;;;5018616;28;20038;-69
2023/04/28 06:01:53;;;;;;;11.48;4.53;;;10.70;68.90;;;;;;5013513;28;20026;-68
2023/04/28 06:04:18;;;;;;;7.70;3.88;;;10.70;69.00;;;;;;5013999;28;20044;-69
2023/04/28 06:06:44;;;;;;;9.32;3.60;;;10.80;69.20;;;;;;5013411;28;20053;-68
2023/04/28 06:09:10;;;;;;;6.68;4.00;;;10.80;69.30;;;;;;5013301;28;20121;-68
2023/04/28 06:11:35;;;;;;;9.43;3.40;;;10.80;69.20;;;;;;5012434;28;20054;-69
2023/04/28 06:14:01;;;;;;;9.65;3.85;;;10.80;69.10;;;;;;5012259;28;20022;-67
2023/04/28 06:16:27;;;;;;;15.00;4.18;;;11.00;69.40;;;;;;5013730;28;20022;-69
2023/04/28 06:18:53;;;;;;;9.85;3.85;;;11.00;69.40;;;;;;5013365;28;20034;-68
2023/04/28 06:21:20;;;;;;;14.75;4.13;;;11.00;69.50;;;;;;5011898;28;20037;-67
2023/04/28 06:23:45;;;;;;;8.85;4.07;;;11.10;69.60;;;;;;5011817;28;20034;-68
2023/04/28 06:26:11;;;;;;;10.88;4.22;;;11.20;69.50;;;;;;5012783;28;20038;-69
2023/04/28 06:28:37;;;;;;;11.77;5.57;;;11.30;69.20;;;;;;5013333;28;20036;-68
2023/04/28 06:31:04;;;;;;;8.13;3.80;;;11.30;69.40;;;;;;5012956;28;20042;-69
2023/04/28 06:33:29;;;;;;;20.55;5.93;;;11.40;69.60;;;;;;5012952;28;20412;-68
2023/04/28 06:35:55;;;;;;;10.25;5.20;;;11.40;69.30;;;;;;5012368;28;20048;-68
2023/04/28 06:38:21;;;;;;;10.13;4.47;;;11.60;69.80;;;;;;5012597;28;20435;-69
2023/04/28 06:40:46;;;;;;;15.98;4.40;;;11.80;69.00;;;;;;5013106;28;20104;-67
2023/04/28 06:43:12;;;;;;;12.20;5.25;;;11.90;69.20;;;;;;5012661;28;20030;-70
2023/04/28 06:45:38;;;;;;;15.52;5.07;;;11.90;69.10;;;;;;5012858;28;20106;-71
2023/04/28 06:48:04;;;;;;;8.40;4.13;;;11.80;69.40;;;;;;5011395;28;20121;-69
2023/04/28 06:50:30;;;;;;;9.52;4.50;;;12.00;69.20;;;;;;5011742;28;20124;-69
2023/04/28 06:52:57;;;;;;;13.88;4.55;;;12.00;68.80;;;;;;5012419;28;20101;-67
2023/04/28 06:55:23;;;;;;;7.60;4.43;;;12.10;68.40;;;;;;5012901;28;20472;-68
2023/04/28 06:57:49;;;;;;;9.80;4.63;;;12.20;68.50;;;;;;5012403;28;20091;-69
2023/04/28 07:00:15;;;;;;;9.98;3.88;;;12.30;68.40;;;;;;5011464;28;20030;-69
2023/04/28 07:02:41;;;;;;;12.35;4.68;;;12.40;68.30;;;;;;5012593;28;20109;-69
2023/04/28 07:05:07;;;;;;;10.57;4.15;;;12.60;68.00;;;;;;5012020;28;20109;-69
2023/04/28 07:07:33;;;;;;;10.77;5.15;;;12.70;67.50;;;;;;5013011;28;20046;-70
2023/04/28 07:09:59;;;;;;;9.75;4.88;;;12.60;67.40;;;;;;5012143;28;20041;-68
2023/04/28 07:12:26;;;;;;;11.55;4.60;;;12.70;67.00;;;;;;5012032;28;20026;-69
2023/04/28 07:14:52;;;;;;;12.00;5.05;;;12.90;67.20;;;;;;5012006;28;20034;-68
2023/04/28 07:17:17;;;;;;;9.80;5.35;;;12.90;66.80;;;;;;5012233;28;20049;-69
2023/04/28 07:19:43;;;;;;;14.18;5.22;;;13.10;66.80;;;;;;5012456;28;20445;-68
2023/04/28 07:22:09;;;;;;;18.27;7.15;;;13.10;66.40;;;;;;5011944;28;20026;-68
2023/04/28 07:24:35;;;;;;;13.75;5.25;;;13.20;66.20;;;;;;5011849;28;20344;-69
2023/04/28 07:27:00;;;;;;;8.40;5.50;;;13.20;66.20;;;;;;5011794;28;20049;-70
2023/04/28 07:29:32;;;;;;;14.65;5.47;;;13.30;66.00;;;;;;5011620;28;20038;-69
2023/04/28 07:31:58;;;;;;;10.15;5.53;;;13.50;66.10;;;;;;5011570;28;20046;-68
2023/04/28 07:34:24;;;;;;;13.18;5.85;;;13.60;66.10;;;;;;5011384;28;20026;-69
2023/04/28 07:36:49;;;;;;;17.35;5.80;;;13.50;65.70;;;;;;5011616;28;20438;-68
2023/04/28 07:39:15;;;;;;;14.70;5.55;;;13.50;65.70;;;;;;5011509;28;20026;-68
2023/04/28 07:41:41;;;;;;;11.88;5.88;;;13.80;66.00;;;;;;5011816;28;20026;-68
2023/04/28 07:44:09;;;;;;;13.38;7.15;;;14.20;65.30;;;;;;5010268;28;20026;-68
2023/04/28 07:46:35;;;;;;;19.30;8.27;;;14.60;64.20;;;;;;5011983;28;20026;-69
2023/04/28 07:49:01;;;;;;;13.02;5.65;;;14.80;63.70;;;;;;5010592;28;20037;-68
2023/04/28 07:51:27;;;;;;;13.25;5.75;;;14.80;63.10;;;;;;5010214;28;20045;-68
2023/04/28 07:53:53;;;;;;;12.95;5.28;;;14.80;63.20;;;;;;5011308;28;20041;-69
2023/04/28 07:56:19;;;;;;;14.38;5.57;;;14.80;63.10;;;;;;5011371;28;20426;-68
2023/04/28 07:58:44;;;;;;;11.88;6.03;;;14.90;63.60;;;;;;5011677;28;20026;-69
2023/04/28 08:01:10;;;;;;;12.90;5.90;;;14.80;62.50;;;;;;5011175;28;20062;-68
2023/04/28 08:03:36;;;;;;;11.00;5.80;;;14.80;62.90;;;;;;5009890;28;20387;-66
2023/04/28 08:06:02;;;;;;;10.55;5.43;;;15.00;63.40;;;;;;5011238;28;20451;-67
2023/04/28 08:08:29;;;;;;;12.55;5.78;;;15.00;62.70;;;;;;5010867;28;20476;-69
2023/04/28 08:10:55;;;;;;;12.45;6.13;;;14.90;63.40;;;;;;5011135;28;20084;-69
2023/04/28 08:13:20;;;;;;;10.00;5.40;;;14.80;62.70;;;;;;5011805;28;20456;-68
2023/04/28 08:15:47;;;;;;;11.95;5.70;;;14.80;62.60;;;;;;5010985;28;20061;-72
2023/04/28 08:18:13;;;;;;;13.32;6.13;;;14.70;62.80;;;;;;5011001;28;20475;-69
2023/04/28 08:20:38;;;;;;;15.65;6.38;;;14.80;62.90;;;;;;5010877;28;20121;-66
2023/04/28 08:23:04;;;;;;;13.48;5.85;;;14.80;62.90;;;;;;5010870;28;20022;-68
2023/04/28 08:25:30;;;;;;;13.40;5.72;;;14.80;63.00;;;;;;5010092;28;20073;-68
2023/04/28 08:27:56;;;;;;;10.82;6.07;;;14.90;63.30;;;;;;5009743;28;20042;-69
2023/04/28 08:30:21;;;;;;;13.80;6.95;;;14.90;63.60;;;;;;5010861;28;20026;-70
2023/04/28 08:32:47;;;;;;;13.50;6.53;;;14.90;63.20;;;;;;5010648;28;20060;-68
2023/04/28 08:35:14;;;;;;;17.08;6.05;;;14.80;63.20;;;;;;5010844;28;20053;-69
2023/04/28 08:37:40;;;;;;;14.45;5.68;;;14.80;63.00;;;;;;5011124;28;20032;-68
2023/04/28 08:40:08;;;;;;;11.35;7.07;;;14.90;63.10;;;;;;5010790;28;20041;-69
2023/04/28 08:42:34;;;;;;;;;;;14.90;62.90;;;;;;5011257;28;20065;-70
2023/04/28 08:45:03;;;;;;;11.98;6.53;;;14.80;62.80;;;;;;5010837;28;19910;-69
2023/04/28 08:47:40;;;;;;;15.10;6.53;;;14.80;62.80;;;;;;5010615;28;20069;-69
2023/04/28 08:50:08;;;;;;;17.05;6.43;;;14.80;62.70;;;;;;5010611;28;20408;-68
2023/04/28 08:52:35;;;;;;;11.73;6.88;;;14.80;62.60;;;;;;5010218;28;20049;-68
2023/04/28 08:55:06;;;;;;;25.25;9.32;;;14.80;63.10;;;;;;5010530;28;20045;-68
2023/04/28 08:57:44;;;;;;;16.98;9.35;;;14.90;62.90;;;;;;5010871;28;20096;-66
2023/04/28 09:00:11;;;;;;;12.90;6.53;;;15.00;62.80;;;;;;5012623;28;20037;-68
2023/04/28 09:02:40;;;;;;;14.20;6.78;;;15.00;63.00;;;;;;5014649;28;20030;-69
2023/04/28 09:05:10;;;;;;;17.58;5.88;;;15.10;63.10;;;;;;5013282;28;20026;-68
2023/04/28 09:07:36;;;;;;;14.98;6.88;;;15.20;61.70;;;;;;5013486;28;20480;-66
2023/04/28 09:10:15;;;;;;;18.10;7.28;;;15.40;62.90;;;;;;5013376;28;20356;-68
2023/04/28 09:12:41;;;;;;;23.90;7.65;;;15.50;62.60;;;;;;5013307;28;20026;-69
2023/04/28 09:15:08;;;;;;;10.05;6.35;;;15.60;62.40;;;;;;5014314;28;20104;-69
2023/04/28 09:17:47;;;;;;;15.32;6.28;;;15.70;62.50;;;;;;5014309;28;20456;-69
2023/04/28 09:20:24;;;;;;;18.88;7.03;;;15.70;62.30;;;;;;5014589;28;20038;-69
2023/04/28 09:22:51;;;;;;;13.73;7.40;;;15.60;62.60;;;;;;5014434;28;20467;-70
2023/04/28 09:25:18;;;;;;;16.17;7.32;;;15.50;62.70;;;;;;5014101;28;20084;-68
2023/04/28 09:27:44;;;;;;;18.67;7.07;;;15.40;63.10;;;;;;5012700;28;20078;-68
2023/04/28 09:30:10;;;;;;;18.50;7.38;;;15.30;63.10;;;;;;5012641;28;20105;-69
2023/04/28 09:32:36;;;;;;;17.58;7.22;;;15.30;63.10;;;;;;5012894;28;20030;-70
2023/04/28 09:35:03;;;;;;;13.52;6.65;;;15.40;63.50;;;;;;5012880;28;20463;-70
2023/04/28 09:37:30;;;;;;;18.95;7.07;;;15.40;63.60;;;;;;5014272;28;20029;-69
2023/04/28 09:40:04;;;;;;;14.38;7.32;;;15.40;63.80;;;;;;5012787;28;20061;-68
2023/04/28 09:42:30;;;;;;;18.63;7.57;;;15.50;64.00;;;;;;5013549;28;20034;-69
2023/04/28 09:44:56;;;;;;;21.58;8.07;;;15.50;64.10;;;;;;5014002;28;20113;-67
2023/04/28 09:47:22;;;;;;;17.27;6.65;;;15.30;65.00;;;;;;5013512;28;20480;-69
2023/04/28 09:49:59;;;;;;;13.45;6.30;;;15.40;64.70;;;;;;5012903;28;20129;-70
2023/04/28 09:52:25;;;;;;;12.48;6.30;;;15.60;64.90;;;;;;5013673;28;20464;-70
2023/04/28 09:54:53;;;;;;;14.48;6.32;;;15.70;64.50;;;;;;5013559;28;20065;-70
2023/04/28 09:57:21;;;;;;;12.05;5.50;;;15.60;64.70;;;;;;5013634;28;20538;-71
2023/04/28 09:59:49;;;;;;;16.23;6.80;;;15.70;64.60;;;;;;5013361;28;20430;-70
2023/04/28 10:02:15;;;;;;;;;;;15.60;64.50;;;;;;5013768;28;20129;-71
2023/04/28 10:04:45;;;;;;;19.33;8.75;;;15.60;64.60;;;;;;5014003;28;19971;-70
2023/04/28 10:07:15;;;;;;;17.70;7.35;;;15.60;64.80;;;;;;5011910;28;20483;-71
2023/04/28 10:09:46;;;;;;;18.52;6.88;;;15.70;64.90;;;;;;5013246;28;20037;-71
2023/04/28 10:12:20;;;;;;;25.08;8.52;;;15.60;65.10;;;;;;5012615;28;20069;-69
2023/04/28 10:14:48;;;;;;;14.20;7.13;;;15.60;65.50;;;;;;5013100;28;20026;-71
2023/04/28 10:17:15;;;;;;;15.63;6.88;;;15.50;66.00;;;;;;5012065;28;20026;-69
2023/04/28 10:19:43;;;;;;;19.05;9.75;;;15.50;66.00;;;;;;5012684;28;20060;-69
2023/04/28 10:22:34;;;;;;;15.90;8.10;;;15.50;66.10;;;;;;5013027;28;20037;-69
2023/04/28 10:25:11;;;;;;;16.30;7.70;;;15.50;66.20;;;;;;5012740;28;20334;-69
2023/04/28 10:27:42;;;;;;;21.95;10.13;;;15.60;66.40;;;;;;5011712;28;20042;-71
2023/04/28 10:30:13;;;;;;;18.85;9.75;;;15.60;66.60;;;;;;5011794;28;20040;-71
2023/04/28 10:32:39;;;;;;;16.85;8.07;;;15.70;66.70;;;;;;5012775;28;20122;-71
2023/04/28 10:35:20;;;;;;;13.65;6.43;;;15.70;66.70;;;;;;5012709;28;20022;-71
2023/04/28 10:38:05;;;;;;;16.08;6.10;;;15.70;66.30;;;;;;5013422;28;20044;-70
2023/04/28 10:40:37;;;;;;;11.25;6.95;;;15.80;66.60;;;;;;5013177;28;20045;-71
2023/04/28 10:43:05;;;;;;;11.05;6.45;;;15.90;66.40;;;;;;5012812;28;20422;-71
2023/04/28 10:45:55;;;;;;;14.27;6.23;;;16.00;66.30;;;;;;5012510;28;20038;-71
2023/04/28 10:48:22;;;;;;;12.43;6.57;;;16.00;66.50;;;;;;5012422;28;20033;-71
2023/04/28 10:51:08;;;;;;;15.73;6.80;;;16.00;66.80;;;;;;5012510;28;20045;-70
2023/04/28 10:53:45;;;;;;;13.85;6.80;;;16.10;67.10;;;;;;5012580;28;20264;-70
2023/04/28 10:56:18;;;;;;;12.07;6.13;;;16.10;68.00;;;;;;5012418;28;20029;-70
2023/04/28 10:58:49;;;;;;;17.85;6.95;;;16.20;68.60;;;;;;5012934;28;20034;-70
2023/04/28 11:01:17;;;;;;;15.32;7.15;;;16.20;68.80;;;;;;5012119;28;20061;-70
2023/04/28 11:03:46;;;;;;;15.77;7.03;;;16.20;69.10;;;;;;5012298;28;20038;-70
2023/04/28 11:06:28;;;;;;;12.20;6.50;;;16.20;69.20;;;;;;5012364;28;20073;-68
2023/04/28 11:08:56;;;;;;;14.93;6.15;;;16.20;68.70;;;;;;5011983;28;20061;-70
2023/04/28 11:11:24;;;;;;;11.20;6.50;;;16.10;68.70;;;;;;5012145;28;20061;-68
2023/04/28 11:13:51;;;;;;;11.93;5.85;;;16.20;69.00;;;;;;5012616;28;20072;-72
2023/04/28 11:16:22;;;;;;;18.63;6.93;;;16.30;68.70;;;;;;5011929;28;20037;-76
2023/04/28 11:18:58;;;;;;;16.90;6.78;;;16.40;68.80;;;;;;5011846;28;20530;-70
2023/04/28 11:21:27;;;;;;;16.88;7.20;;;16.50;69.70;;;;;;5011862;28;20546;-67
2023/04/28 11:23:53;;;;;;;13.73;6.25;;;16.60;69.80;;;;;;5011667;28;20048;-72
2023/04/28 11:26:19;;;;;;;16.38;6.90;;;16.80;69.60;;;;;;5011582;28;20583;-68
2023/04/28 11:28:53;;;;;;;15.98;7.40;;;16.80;68.90;;;;;;5012363;28;20095;-69
2023/04/28 11:31:22;;;;;;;13.07;6.90;;;16.90;68.50;;;;;;5011577;28;20045;-70
2023/04/28 11:34:13;;;;;;;15.23;6.43;;;16.90;68.80;;;;;;5011615;28;20447;-71
2023/04/28 11:36:40;;;;;;;12.75;6.50;;;16.90;68.20;;;;;;5011802;28;20554;-69
2023/04/28 11:39:08;;;;;;;15.65;6.63;;;16.80;67.90;;;;;;5011533;28;20041;-68
2023/04/28 11:41:38;;;;;;;12.80;6.93;;;16.60;68.30;;;;;;5011577;28;20400;-69
2023/04/28 11:44:14;;;;;;;11.15;6.93;;;16.40;69.00;;;;;;5011355;28;20367;-68
2023/04/28 11:46:54;;;;;;;11.35;6.38;;;16.50;68.80;;;;;;5011850;28;20121;-68
2023/04/28 11:49:23;;;;;;;11.30;6.43;;;16.60;68.80;;;;;;5011301;28;20042;-69
2023/04/28 11:51:50;;;;;;;11.82;6.57;;;16.60;68.70;;;;;;5011405;28;20364;-68
2023/04/28 11:54:21;;;;;;;15.68;6.22;;;16.70;68.80;;;;;;5011566;28;20040;-68
2023/04/28 11:56:47;;;;;;;16.80;6.72;;;16.70;68.50;;;;;;5011351;28;20048;-68
2023/04/28 11:59:13;;;;;;;23.30;12.48;;;16.60;68.20;;;;;;5011167;28;20034;-68
2023/04/28 12:01:50;;;;;;;14.23;6.95;;;16.60;68.40;;;;;;5011540;28;20043;-69
2023/04/28 12:04:36;;;;;;;15.90;7.18;;;16.60;68.80;;;;;;5011134;28;20030;-67
2023/04/28 12:07:18;;;;;;;16.42;7.50;;;16.40;69.20;;;;;;5011224;28;20360;-69
2023/04/28 12:09:47;;;;;;;11.95;6.88;;;16.40;69.90;;;;;;5011171;28;20036;-68
2023/04/28 12:12:13;;;;;;;19.17;7.22;;;16.50;70.00;;;;;;5011052;28;20115;-69
2023/04/28 12:15:03;;;;;;;11.15;7.03;;;16.50;69.80;;;;;;5010983;28;20424;-69
2023/04/28 12:17:34;;;;;;;12.32;6.82;;;16.50;69.80;;;;;;5010822;28;20456;-70
2023/04/28 12:20:02;;;;;;;16.33;7.80;;;16.50;70.00;;;;;;5010770;28;20448;-69
2023/04/28 12:22:28;;;;;;;;;;;16.50;70.00;;;;;;5011912;28;20365;-67
2023/04/28 12:25:05;;;;;;;15.85;7.18;;;16.40;69.90;;;;;;5010841;28;19909;-68
2023/04/28 12:27:31;;;;;;;14.18;7.80;;;16.40;70.20;;;;;;5009347;28;20038;-67
2023/04/28 12:29:57;;;;;;;16.17;9.32;;;16.40;70.30;;;;;;5010785;28;20038;-69
2023/04/28 12:32:40;;;;;;;15.57;7.10;;;16.40;70.60;;;;;;5010615;28;20061;-69
2023/04/28 12:35:07;;;;;;;20.75;7.55;;;16.50;71.30;;;;;;5010221;28;20352;-71
2023/04/28 12:37:32;;;;;;;16.38;7.43;;;16.60;71.60;;;;;;5009941;28;20033;-69
2023/04/28 12:39:59;;;;;;;17.23;7.70;;;16.40;71.40;;;;;;5010644;28;20034;-69
2023/04/28 12:42:25;;;;;;;17.45;7.88;;;16.50;71.50;;;;;;5010665;28;20034;-68
2023/04/28 12:44:50;;;;;;;15.27;7.38;;;16.50;73.40;;;;;;5010723;28;20471;-68